This is the latest recevied weather packets stored in our database for station/object I2TZK-00. If no packets are shown the sender has not sent any weather packets the latest 10 day(s).
| Time | Temp. | Humidity | Pressure | Rain* | Wind** | Luminosity | Snow |
|---|---|---|---|---|---|---|---|
| 1787934284 | 27.78° C | 50% | 1005.3 hPa | - | - | - | - |
| 1787934105 | 27.78° C | 49% | 1005.6 hPa | - | - | - | - |
| 1787933925 | 27.78° C | 48% | 1005.6 hPa | - | - | - | - |
| 1787933745 | 27.78° C | 47% | 1005.5 hPa | - | - | - | - |
| 1787933566 | 27.78° C | 46% | 1005.7 hPa | - | - | - | - |
| 1787933386 | 27.78° C | 45% | 1005.5 hPa | - | - | - | - |
| 1787933207 | 27.78° C | 44% | 1005.6 hPa | - | - | - | - |
| 1787933027 | 27.78° C | 44% | 1005.6 hPa | - | - | - | - |
| 1787932847 | 27.78° C | 44% | 1005.6 hPa | - | - | - | - |
| 1787932668 | 28.33° C | 44% | 1005.5 hPa | - | - | - | - |
| 1787932488 | 28.33° C | 44% | 1005.6 hPa | - | - | - | - |
| 1787932308 | 28.33° C | 45% | 1005.4 hPa | - | - | - | - |
| 1787932128 | 28.33° C | 45% | 1005.4 hPa | - | - | - | - |
| 1787931949 | 28.89° C | 46% | 1005.2 hPa | - | - | - | - |
| 1787931909 | 28.89° C | 46% | 1005.3 hPa | - | - | - | - |
| 1787931729 | 28.89° C | 47% | 1004.9 hPa | - | - | - | - |
| 1787931550 | 29.44° C | 48% | 1004.9 hPa | - | - | - | - |
| 1787931370 | 29.44° C | 50% | 1004.7 hPa | - | - | - | - |
| 1787931190 | 30° C | 53% | 1004.4 hPa | - | - | - | - |
| 1787931010 | 30° C | 57% | 1004.2 hPa | - | - | - | - |
| 1787930831 | 30.56° C | 60% | 1003.9 hPa | - | - | - | - |
| 1787930693 | 30.56° C | 59% | 1003.9 hPa | - | - | - | - |
| 1787930591 | 30.56° C | 59% | 1003.7 hPa | - | - | - | - |
| 1787930411 | 30.56° C | 59% | 1003.9 hPa | - | - | - | - |
| 1787930231 | 30.56° C | 60% | 1003.8 hPa | - | - | - | - |
* Rain since midnight (hover to see other rain measurements)
** Current wind speed in m/s (hover to see current wind gust speed)